Time;durP1;ratioP1;P1;durP2;ratioP2;P2;SDS_P1;SDS_P2;PMS_P1;PMS_P2;Temp;Humidity;BMP_temperature;BMP_pressure;BME280_temperature;BME280_humidity;BME280_pressure;Samples;Min_cycle;Max_cycle;Signal;HPM_P1;HPM_P2
2023/10/04 00:01:06;;;;;;;8.65;2.00;;;13.00;99.90;;;;;;4991985;28;20256;-77
2023/10/04 00:03:32;;;;;;;8.32;1.70;;;13.00;99.90;;;;;;4986347;28;20037;-77
2023/10/04 00:05:59;;;;;;;7.00;2.20;;;12.90;99.90;;;;;;4994509;28;20135;-77
2023/10/04 00:08:25;;;;;;;6.53;1.63;;;12.90;99.90;;;;;;4994162;28;20501;-77
2023/10/04 00:10:51;;;;;;;7.85;1.80;;;12.90;99.90;;;;;;4995488;28;20060;-77
2023/10/04 00:13:16;;;;;;;5.55;1.85;;;12.80;99.90;;;;;;4994194;28;20053;-77
2023/10/04 00:15:42;;;;;;;7.53;2.25;;;12.90;99.90;;;;;;4994326;28;20034;-77
2023/10/04 00:18:09;;;;;;;4.88;1.85;;;12.80;99.90;;;;;;4994279;28;20525;-77
2023/10/04 00:20:35;;;;;;;9.00;2.05;;;12.80;99.90;;;;;;4993917;28;20096;-77
2023/10/04 00:23:04;;;;;;;6.75;2.10;;;12.80;99.90;;;;;;4994684;28;20466;-77
2023/10/04 00:25:30;;;;;;;7.05;2.25;;;12.80;99.90;;;;;;4998465;28;20042;-77
2023/10/04 00:27:56;;;;;;;11.25;2.38;;;12.70;99.90;;;;;;5008911;28;20053;-77
2023/10/04 00:30:23;;;;;;;9.02;1.67;;;12.80;99.90;;;;;;4958285;28;20046;-77
2023/10/04 00:32:48;;;;;;;8.63;2.10;;;12.80;99.90;;;;;;4974524;28;20394;-77
2023/10/04 00:35:17;;;;;;;5.78;1.85;;;12.80;99.90;;;;;;4975434;28;20041;-77
2023/10/04 00:37:47;;;;;;;8.82;2.10;;;12.80;99.90;;;;;;4975628;28;20049;-77
2023/10/04 00:40:19;;;;;;;10.00;2.00;;;12.80;99.90;;;;;;4978795;28;20074;-77
2023/10/04 00:42:49;;;;;;;6.43;1.80;;;12.80;99.90;;;;;;4958826;28;20095;-77
2023/10/04 00:45:16;;;;;;;10.98;2.70;;;12.80;99.90;;;;;;4974761;28;20046;-77
2023/10/04 00:47:53;;;;;;;7.82;1.90;;;12.80;99.90;;;;;;4974470;28;20118;-77
2023/10/04 00:50:29;;;;;;;8.57;1.92;;;12.80;99.90;;;;;;4976585;28;20039;-77
2023/10/04 00:53:00;;;;;;;7.25;2.17;;;12.80;99.90;;;;;;4977400;28;20042;-77
2023/10/04 00:55:27;;;;;;;11.60;2.35;;;12.80;99.90;;;;;;4976188;28;20042;-78
2023/10/04 00:57:56;;;;;;;7.32;1.60;;;12.80;99.90;;;;;;4975082;28;20119;-77
2023/10/04 01:00:22;;;;;;;4.00;2.13;;;12.80;99.90;;;;;;4976321;28;20050;-77
2023/10/04 01:02:48;;;;;;;3.83;1.67;;;12.80;99.90;;;;;;4977392;28;20141;-78
2023/10/04 01:05:15;;;;;;;7.13;1.25;;;12.70;99.90;;;;;;4958040;28;20046;-77
2023/10/04 01:07:42;;;;;;;6.82;1.90;;;12.70;99.90;;;;;;4974577;28;20039;-77
2023/10/04 01:10:15;;;;;;;8.23;2.47;;;12.70;99.90;;;;;;4974183;28;20450;-77
2023/10/04 01:12:46;;;;;;;11.98;1.95;;;12.70;99.90;;;;;;4974668;28;20047;-77
2023/10/04 01:15:31;;;;;;;11.90;2.08;;;12.80;99.90;;;;;;4957983;28;20447;-77
2023/10/04 01:17:58;;;;;;;8.35;2.15;;;12.70;99.90;;;;;;4973858;28;20509;-77
2023/10/04 01:20:28;;;;;;;9.25;1.85;;;12.70;99.90;;;;;;4974884;28;20393;-78
2023/10/04 01:23:01;;;;;;;8.88;2.80;;;12.70;99.90;;;;;;4974191;28;20088;-78
2023/10/04 01:25:29;;;;;;;10.02;2.28;;;12.70;99.90;;;;;;4974336;28;20038;-77
2023/10/04 01:27:55;;;;;;;10.88;2.30;;;12.70;99.90;;;;;;4982203;28;20068;-77
2023/10/04 01:30:21;;;;;;;7.50;1.88;;;12.70;99.90;;;;;;4991080;28;20121;-77
2023/10/04 01:32:50;;;;;;;9.15;1.88;;;12.70;99.90;;;;;;4991024;28;20381;-77
2023/10/04 01:35:22;;;;;;;16.38;2.58;;;12.70;99.90;;;;;;4990925;28;20049;-77
2023/10/04 01:37:48;;;;;;;8.98;2.08;;;12.70;99.90;;;;;;4973741;28;20458;-77
2023/10/04 01:40:13;;;;;;;6.68;2.47;;;12.70;99.90;;;;;;4973144;28;20038;-77
2023/10/04 01:42:40;;;;;;;7.95;1.90;;;12.70;99.90;;;;;;4973433;28;20553;-77
2023/10/04 01:45:11;;;;;;;5.43;1.85;;;12.70;99.90;;;;;;4990779;28;20410;-77
2023/10/04 01:47:38;;;;;;;7.80;1.88;;;12.70;99.90;;;;;;4972992;28;20463;-77
2023/10/04 01:50:09;;;;;;;9.93;2.35;;;12.70;99.90;;;;;;4972522;28;20087;-77
2023/10/04 01:52:36;;;;;;;11.68;2.65;;;12.70;99.90;;;;;;4973669;28;20125;-77
2023/10/04 01:55:06;;;;;;;5.55;2.03;;;12.70;99.90;;;;;;4973074;28;20042;-77
2023/10/04 01:57:34;;;;;;;9.93;2.55;;;12.70;99.90;;;;;;4990170;28;20444;-76
2023/10/04 02:00:01;;;;;;;9.38;2.30;;;12.70;99.90;;;;;;4974583;28;20096;-77
2023/10/04 02:02:27;;;;;;;10.38;2.70;;;12.70;99.90;;;;;;4973024;28;20046;-77
2023/10/04 02:04:53;;;;;;;8.43;3.13;;;12.70;99.90;;;;;;4973124;28;20056;-77
2023/10/04 02:07:23;;;;;;;8.35;2.20;;;12.80;99.90;;;;;;4995810;22;20046;-76
2023/10/04 02:09:51;;;;;;;7.13;2.17;;;12.80;99.90;;;;;;4970158;28;20046;-76
2023/10/04 02:12:18;;;;;;;4.68;1.88;;;12.70;99.90;;;;;;4954077;28;20035;-76
2023/10/04 02:14:46;;;;;;;7.07;2.47;;;12.70;99.90;;;;;;4953818;28;20100;-76
2023/10/04 02:17:16;;;;;;;8.40;2.78;;;12.70;99.90;;;;;;4953470;28;20043;-76
2023/10/04 02:19:41;;;;;;;11.18;2.50;;;12.70;99.90;;;;;;4937348;28;20039;-76
2023/10/04 02:22:08;;;;;;;13.95;2.40;;;12.70;99.90;;;;;;4953580;28;20513;-77
2023/10/04 02:24:35;;;;;;;9.88;2.25;;;12.80;99.90;;;;;;4953596;28;20053;-76
2023/10/04 02:27:06;;;;;;;11.38;2.25;;;12.70;99.90;;;;;;4953730;28;20046;-77
2023/10/04 02:29:33;;;;;;;12.70;2.53;;;12.80;99.90;;;;;;4953140;28;20050;-76
2023/10/04 02:31:59;;;;;;;10.52;2.75;;;12.80;99.90;;;;;;4953716;28;20065;-76
2023/10/04 02:34:25;;;;;;;14.32;2.58;;;12.80;99.90;;;;;;4970582;28;20502;-76
2023/10/04 02:36:52;;;;;;;13.02;2.28;;;12.80;99.90;;;;;;4953653;28;20054;-76
2023/10/04 02:39:17;;;;;;;12.93;2.63;;;12.70;99.90;;;;;;4953128;28;20046;-76
2023/10/04 02:41:47;;;;;;;11.25;3.10;;;12.70;99.90;;;;;;4953201;28;20042;-77
2023/10/04 02:44:15;;;;;;;8.05;2.42;;;12.70;99.90;;;;;;4953607;28;20042;-76
2023/10/04 02:46:44;;;;;;;9.07;2.17;;;12.70;99.90;;;;;;4953291;28;20038;-77
2023/10/04 02:49:10;;;;;;;13.07;3.05;;;12.70;99.90;;;;;;4952674;28;20494;-76
2023/10/04 02:51:36;;;;;;;7.70;2.20;;;12.70;99.90;;;;;;4953355;28;20081;-77
2023/10/04 02:54:04;;;;;;;11.98;2.97;;;12.70;99.90;;;;;;4953373;28;20093;-76
2023/10/04 02:56:30;;;;;;;15.13;2.88;;;12.70;99.90;;;;;;4970446;28;20097;-76
2023/10/04 02:58:56;;;;;;;10.15;2.70;;;12.60;99.90;;;;;;4936722;28;20038;-76
2023/10/04 03:01:26;;;;;;;6.05;2.67;;;12.80;99.90;;;;;;4970069;28;20127;-76
2023/10/04 03:03:52;;;;;;;6.82;2.28;;;12.70;99.90;;;;;;4953385;28;20051;-76
2023/10/04 03:06:22;;;;;;;13.90;3.15;;;12.70;99.90;;;;;;4953291;28;20069;-76
2023/10/04 03:08:50;;;;;;;8.70;2.65;;;12.70;99.90;;;;;;4952797;28;20067;-76
2023/10/04 03:11:16;;;;;;;9.32;2.58;;;12.70;99.90;;;;;;4970191;28;20047;-76
2023/10/04 03:13:42;;;;;;;11.23;2.00;;;12.70;99.90;;;;;;4970233;28;20039;-77
2023/10/04 03:16:07;;;;;;;6.60;2.50;;;12.70;99.90;;;;;;4953031;28;20046;-77
2023/10/04 03:18:37;;;;;;;7.80;2.00;;;12.70;99.90;;;;;;4970298;28;20039;-76
2023/10/04 03:23:40;;;;;;;9.60;2.53;;;12.70;99.90;;;;;;4973476;28;20532;-77
2023/10/04 03:26:06;;;;;;;6.65;2.00;;;12.70;99.90;;;;;;4973699;28;20046;-76
2023/10/04 03:28:33;;;;;;;17.33;4.32;;;12.70;99.90;;;;;;4956507;28;20050;-76
2023/10/04 03:31:03;;;;;;;11.30;2.45;;;12.70;99.90;;;;;;4973103;28;20508;-77
2023/10/04 03:33:34;;;;;;;6.40;2.05;;;12.70;99.90;;;;;;4973479;28;20049;-77
2023/10/04 03:36:04;;;;;;;9.95;2.20;;;12.70;99.90;;;;;;4956227;28;20039;-77
2023/10/04 03:38:33;;;;;;;14.82;2.70;;;12.70;99.90;;;;;;4956217;28;20054;-76
2023/10/04 03:40:59;;;;;;;14.27;2.75;;;12.70;99.90;;;;;;4955807;28;20030;-76
2023/10/04 03:43:25;;;;;;;8.13;2.10;;;12.70;99.90;;;;;;4956093;28;20121;-77
2023/10/04 03:45:51;;;;;;;13.02;2.10;;;12.70;99.90;;;;;;4956324;28;20490;-76
2023/10/04 03:48:16;;;;;;;9.60;2.85;;;12.70;99.90;;;;;;4955858;28;20050;-76
2023/10/04 03:50:46;;;;;;;13.90;2.22;;;12.70;99.90;;;;;;4955513;28;20498;-76
2023/10/04 03:53:13;;;;;;;10.52;2.47;;;12.70;99.90;;;;;;4955979;28;20432;-76
2023/10/04 03:55:39;;;;;;;9.57;1.98;;;12.60;99.90;;;;;;4972946;28;20030;-76
2023/10/04 03:58:04;;;;;;;16.30;3.00;;;12.70;99.90;;;;;;4939892;28;20076;-76
2023/10/04 04:00:32;;;;;;;9.95;2.55;;;12.70;99.90;;;;;;4939608;28;20049;-76
2023/10/04 04:02:59;;;;;;;8.55;2.22;;;12.70;99.90;;;;;;4940054;28;20051;-77
2023/10/04 04:05:25;;;;;;;10.90;2.10;;;12.80;99.90;;;;;;4955902;28;20448;-77
2023/10/04 04:07:52;;;;;;;9.52;2.30;;;12.70;99.90;;;;;;4955419;28;20043;-76
2023/10/04 04:10:19;;;;;;;13.32;2.70;;;12.80;99.90;;;;;;4972480;28;20088;-76
2023/10/04 04:12:46;;;;;;;10.40;2.05;;;12.70;99.90;;;;;;4955698;28;20445;-77
2023/10/04 04:15:14;;;;;;;9.13;2.08;;;12.80;99.90;;;;;;4939524;28;20525;-76
2023/10/04 04:17:41;;;;;;;5.88;2.67;;;12.70;99.90;;;;;;4955321;28;20061;-77
2023/10/04 04:20:14;;;;;;;12.15;2.13;;;12.80;99.90;;;;;;4939327;28;20038;-76
2023/10/04 04:22:40;;;;;;;;;;;12.70;99.90;;;;;;4940040;28;20051;-76
2023/10/04 04:25:14;;;;;;;11.88;2.58;;;12.60;99.90;;;;;;4955416;28;19918;-76
2023/10/04 04:27:44;;;;;;;12.73;2.80;;;12.60;99.90;;;;;;4972734;28;20049;-76
2023/10/04 04:30:18;;;;;;;7.85;2.60;;;12.60;99.90;;;;;;4955045;28;20245;-76
2023/10/04 04:32:56;;;;;;;11.80;3.30;;;12.70;99.90;;;;;;4955245;28;20039;-79
2023/10/04 04:35:47;;;;;;;9.55;2.40;;;12.60;99.90;;;;;;4955356;28;20051;-76
2023/10/04 04:38:22;;;;;;;10.35;2.58;;;12.60;99.90;;;;;;4955249;28;20042;-76
2023/10/04 04:40:49;;;;;;;9.13;2.42;;;12.60;99.90;;;;;;4972357;28;20074;-76
2023/10/04 04:45:51;;;;;;;16.33;3.25;;;12.60;99.90;;;;;;4972172;28;20502;-76
2023/10/04 04:48:18;;;;;;;10.18;2.88;;;12.70;99.90;;;;;;4955078;28;20035;-76
2023/10/04 04:50:44;;;;;;;10.88;2.60;;;12.60;99.90;;;;;;4954577;28;20050;-76
2023/10/04 04:53:15;;;;;;;11.32;2.83;;;12.60;99.90;;;;;;4972327;28;20045;-76
2023/10/04 04:55:41;;;;;;;6.70;2.40;;;12.70;99.90;;;;;;4972154;28;20497;-76
2023/10/04 04:58:06;;;;;;;9.82;3.17;;;12.60;99.90;;;;;;4954608;28;20125;-76
2023/10/04 05:00:33;;;;;;;18.45;3.85;;;12.70;99.90;;;;;;4938826;28;20043;-77
2023/10/04 05:03:00;;;;;;;8.02;3.03;;;12.70;99.90;;;;;;4954969;28;20047;-76
2023/10/04 05:05:26;;;;;;;9.25;3.15;;;12.70;99.90;;;;;;4954624;28;20051;-76
2023/10/04 05:07:52;;;;;;;12.10;2.13;;;12.70;99.90;;;;;;4954885;28;20405;-76
2023/10/04 05:10:18;;;;;;;9.07;2.58;;;12.70;99.90;;;;;;4954337;28;20039;-76
2023/10/04 05:12:46;;;;;;;15.88;2.97;;;12.70;99.90;;;;;;4954615;28;20035;-76
2023/10/04 05:15:22;;;;;;;9.40;3.00;;;12.70;99.90;;;;;;4954774;28;20072;-76
2023/10/04 05:17:51;;;;;;;15.30;4.88;;;12.70;99.90;;;;;;4954831;28;20035;-76
2023/10/04 05:20:21;;;;;;;5.85;2.00;;;12.70;99.90;;;;;;4938417;28;20070;-77
2023/10/04 05:22:49;;;;;;;13.43;2.90;;;12.70;99.90;;;;;;4972108;28;20460;-77
2023/10/04 05:25:16;;;;;;;9.43;2.20;;;12.70;99.90;;;;;;4954378;28;20125;-77
2023/10/04 05:27:43;;;;;;;7.68;2.80;;;12.80;99.90;;;;;;4954366;28;20498;-76
2023/10/04 05:30:15;;;;;;;16.25;2.83;;;12.80;99.90;;;;;;4971338;28;20054;-76
2023/10/04 05:32:42;;;;;;;12.52;2.47;;;12.80;99.90;;;;;;4954471;28;20043;-76
2023/10/04 05:35:12;;;;;;;10.63;2.97;;;12.80;99.90;;;;;;4954288;28;20414;-76
2023/10/04 05:37:41;;;;;;;4.47;2.00;;;12.70;99.90;;;;;;4954241;28;20043;-76
2023/10/04 05:40:23;;;;;;;10.13;2.65;;;12.70;99.90;;;;;;4954106;28;20050;-76
2023/10/04 05:42:48;;;;;;;12.02;2.60;;;12.70;99.90;;;;;;4954069;28;20126;-76
2023/10/04 05:45:14;;;;;;;10.77;2.63;;;12.70;99.90;;;;;;4971022;28;20206;-76
2023/10/04 05:47:40;;;;;;;12.02;2.38;;;12.70;99.90;;;;;;4953916;28;20035;-76
2023/10/04 05:50:17;;;;;;;6.82;2.90;;;12.70;99.90;;;;;;4971147;28;20041;-76
2023/10/04 05:52:43;;;;;;;8.27;2.53;;;12.70;99.90;;;;;;4971331;28;20555;-76
2023/10/04 05:55:10;;;;;;;7.93;2.47;;;12.70;99.90;;;;;;4954165;28;20043;-77
2023/10/04 05:57:37;;;;;;;25.63;3.13;;;12.80;99.90;;;;;;4954079;28;20042;-76
2023/10/04 06:00:14;;;;;;;14.38;3.97;;;12.80;99.90;;;;;;4971008;28;20050;-76
2023/10/04 06:02:40;;;;;;;14.98;3.13;;;12.80;99.90;;;;;;4953874;28;20066;-77
2023/10/04 06:05:07;;;;;;;10.20;2.20;;;12.80;99.90;;;;;;4953768;28;20498;-77
2023/10/04 06:07:33;;;;;;;10.20;3.08;;;12.80;99.90;;;;;;4937639;28;20043;-76
2023/10/04 06:09:59;;;;;;;12.10;2.78;;;12.80;99.90;;;;;;4953646;28;20563;-76
2023/10/04 06:12:24;;;;;;;10.63;3.47;;;12.80;99.90;;;;;;4954199;28;20039;-77
2023/10/04 06:14:50;;;;;;;9.75;2.65;;;12.80;99.90;;;;;;4953903;28;20108;-77
2023/10/04 06:17:16;;;;;;;15.55;2.45;;;12.80;99.90;;;;;;4953521;28;20498;-77
2023/10/04 06:19:41;;;;;;;10.88;2.65;;;12.90;99.90;;;;;;4953376;28;20057;-77
2023/10/04 06:22:07;;;;;;;9.65;3.65;;;12.90;99.90;;;;;;4953546;28;20130;-77
2023/10/04 06:24:32;;;;;;;11.70;2.60;;;12.90;99.90;;;;;;4953624;28;20042;-77
2023/10/04 06:26:58;;;;;;;8.93;2.75;;;12.90;99.90;;;;;;4970843;28;20456;-77
2023/10/04 06:29:24;;;;;;;14.00;3.25;;;12.90;99.90;;;;;;4953437;28;20039;-77
2023/10/04 06:31:49;;;;;;;6.95;2.65;;;13.00;99.90;;;;;;4953406;28;20454;-77
2023/10/04 06:34:15;;;;;;;13.63;2.85;;;13.00;99.90;;;;;;4953420;28;20407;-77
2023/10/04 06:36:41;;;;;;;10.63;2.83;;;13.10;99.90;;;;;;4953561;28;20114;-77
2023/10/04 06:39:07;;;;;;;10.50;3.20;;;13.20;99.90;;;;;;4953084;28;20133;-77
2023/10/04 06:41:33;;;;;;;10.85;3.65;;;13.20;99.90;;;;;;4970532;28;20058;-77
2023/10/04 06:43:58;;;;;;;9.27;3.30;;;13.30;99.90;;;;;;4953431;28;20031;-76
2023/10/04 06:46:24;;;;;;;8.88;3.63;;;13.30;99.90;;;;;;4953279;28;20050;-77
2023/10/04 06:48:51;;;;;;;11.07;3.15;;;13.40;99.90;;;;;;4953072;28;20705;-77
2023/10/04 06:51:16;;;;;;;13.05;4.05;;;13.40;99.90;;;;;;4970381;28;20043;-77
2023/10/04 06:53:43;;;;;;;12.88;2.90;;;13.50;99.90;;;;;;4953045;28;20042;-78
2023/10/04 06:56:12;;;;;;;12.43;3.40;;;13.70;99.90;;;;;;4951977;28;20065;-77
2023/10/04 06:58:37;;;;;;;11.55;3.10;;;13.80;99.90;;;;;;4970288;28;20126;-77
2023/10/04 07:01:03;;;;;;;9.23;2.92;;;13.80;99.90;;;;;;4953211;28;20484;-77
2023/10/04 07:03:29;;;;;;;10.05;3.72;;;13.90;99.90;;;;;;4937141;28;20053;-78
2023/10/04 07:05:55;;;;;;;15.07;3.53;;;14.10;99.90;;;;;;4953024;28;20043;-77
2023/10/04 07:08:20;;;;;;;10.60;2.85;;;14.10;99.90;;;;;;4952430;28;20041;-77
2023/10/04 07:10:46;;;;;;;11.48;3.00;;;14.30;99.90;;;;;;4952679;28;20502;-77
2023/10/04 07:13:12;;;;;;;12.05;3.28;;;14.40;99.90;;;;;;4970228;28;20038;-76
2023/10/04 07:15:41;;;;;;;7.75;2.58;;;14.50;99.90;;;;;;4970260;28;20035;-77
2023/10/04 07:18:12;;;;;;;12.27;3.28;;;14.50;99.90;;;;;;4970352;28;20047;-76
2023/10/04 07:20:39;;;;;;;13.00;3.55;;;14.70;99.90;;;;;;4969979;28;20386;-77
2023/10/04 07:23:07;;;;;;;12.77;3.30;;;14.80;99.90;;;;;;4952953;28;20387;-77
2023/10/04 07:25:47;;;;;;;9.30;3.17;;;14.90;99.90;;;;;;4952745;28;20039;-76
2023/10/04 07:28:13;;;;;;;7.38;2.85;;;14.90;99.90;;;;;;4952891;28;20054;-77
2023/10/04 07:30:40;;;;;;;12.23;3.00;;;15.00;99.90;;;;;;4952750;28;20039;-77
2023/10/04 07:33:07;;;;;;;9.10;3.58;;;15.10;99.90;;;;;;4952904;28;20173;-77
2023/10/04 07:35:34;;;;;;;11.00;4.65;;;15.20;99.90;;;;;;4969960;28;20070;-76
2023/10/04 07:38:00;;;;;;;16.83;3.88;;;15.20;99.90;;;;;;4969662;28;20608;-77
2023/10/04 07:40:27;;;;;;;10.43;3.10;;;15.30;99.90;;;;;;4952529;28;20130;-76
2023/10/04 07:42:53;;;;;;;12.10;3.75;;;15.30;99.90;;;;;;4952522;28;20390;-76
2023/10/04 07:45:21;;;;;;;11.85;3.33;;;15.40;99.90;;;;;;4969962;28;20136;-77
2023/10/04 07:47:47;;;;;;;12.10;3.85;;;15.50;99.90;;;;;;4969844;28;20043;-76
2023/10/04 07:50:15;;;;;;;13.73;4.20;;;15.70;99.90;;;;;;4969365;28;20461;-76
2023/10/04 07:52:43;;;;;;;9.95;3.72;;;15.80;99.90;;;;;;4969704;28;20050;-76
2023/10/04 07:55:18;;;;;;;11.85;3.25;;;16.00;99.90;;;;;;4969700;28;20074;-76
2023/10/04 07:58:01;;;;;;;14.98;3.92;;;16.00;99.90;;;;;;4935669;28;20039;-75
2023/10/04 08:00:26;;;;;;;10.68;3.80;;;16.00;99.90;;;;;;4968069;28;20039;-76
2023/10/04 08:02:52;;;;;;;10.57;3.72;;;16.10;99.90;;;;;;4969705;28;20034;-75
2023/10/04 08:05:31;;;;;;;10.75;3.35;;;16.10;99.90;;;;;;4969556;28;20043;-73
2023/10/04 08:07:58;;;;;;;10.95;3.35;;;16.10;99.90;;;;;;5018827;22;20044;-72
2023/10/04 08:10:25;;;;;;;12.35;3.80;;;16.10;99.90;;;;;;5095530;28;20040;-71
2023/10/04 08:12:53;;;;;;;9.57;3.40;;;16.10;99.90;;;;;;5115217;28;20692;-71
2023/10/04 08:15:20;;;;;;;9.02;3.60;;;16.10;99.90;;;;;;5115453;28;20027;-71
2023/10/04 08:17:48;;;;;;;16.38;3.33;;;16.00;99.90;;;;;;5096843;28;20047;-71
2023/10/04 08:20:18;;;;;;;11.07;4.13;;;16.10;99.90;;;;;;5113429;28;20399;-71
2023/10/04 08:22:44;;;;;;;10.88;3.20;;;16.00;99.90;;;;;;5114013;28;20040;-71
2023/10/04 08:25:13;;;;;;;13.45;3.65;;;15.90;99.90;;;;;;5115192;28;20049;-71
2023/10/04 08:27:39;;;;;;;10.68;3.10;;;15.90;99.90;;;;;;5113969;28;20028;-71
2023/10/04 08:30:13;;;;;;;10.07;3.75;;;15.80;99.90;;;;;;5096393;28;20407;-71
2023/10/04 08:32:44;;;;;;;16.00;3.50;;;15.80;99.90;;;;;;5115075;28;20032;-71
2023/10/04 08:35:27;;;;;;;10.43;3.65;;;15.80;99.90;;;;;;5113695;28;20047;-71
2023/10/04 08:38:00;;;;;;;9.95;3.35;;;15.80;99.90;;;;;;5113743;28;20407;-71
2023/10/04 08:40:27;;;;;;;12.07;3.40;;;16.00;99.90;;;;;;5114650;28;20510;-72
2023/10/04 08:42:53;;;;;;;19.63;3.80;;;16.00;99.90;;;;;;5113597;28;20048;-72
2023/10/04 08:45:24;;;;;;;10.30;2.90;;;16.10;99.90;;;;;;5113482;28;20042;-73
2023/10/04 08:47:51;;;;;;;12.23;3.38;;;16.20;99.90;;;;;;5113432;28;20521;-72
2023/10/04 08:50:31;;;;;;;13.77;3.92;;;16.20;99.90;;;;;;5113141;28;20123;-72
2023/10/04 08:53:42;;;;;;;13.68;3.25;;;16.30;99.90;;;;;;5113714;28;20074;-72
2023/10/04 08:56:15;;;;;;;8.98;2.80;;;16.40;99.90;;;;;;5103896;28;20043;-73
2023/10/04 08:58:43;;;;;;;;;;;16.40;99.90;;;;;;5115107;28;20047;-72
2023/10/04 09:01:11;;;;;;;9.05;3.67;;;16.30;99.90;;;;;;5114334;28;19920;-74
2023/10/04 09:03:40;;;;;;;8.73;3.10;;;16.40;99.90;;;;;;5114592;28;20411;-72
2023/10/04 09:06:10;;;;;;;11.90;3.50;;;16.40;99.90;;;;;;5113043;28;20050;-72
2023/10/04 09:08:38;;;;;;;10.45;3.35;;;16.50;99.90;;;;;;5112898;28;20096;-72
2023/10/04 09:11:10;;;;;;;11.70;3.95;;;16.50;99.90;;;;;;5114142;28;20047;-72
2023/10/04 09:13:42;;;;;;;13.13;4.82;;;16.60;99.90;;;;;;5113109;28;20444;-72
2023/10/04 09:16:22;;;;;;;8.63;3.15;;;16.60;99.90;;;;;;5114285;28;20046;-72
2023/10/04 09:18:48;;;;;;;8.63;3.20;;;16.70;99.90;;;;;;5112958;28;20455;-72
2023/10/04 09:21:16;;;;;;;7.72;3.83;;;16.70;99.90;;;;;;5114210;28;20044;-72
2023/10/04 09:23:46;;;;;;;11.43;3.75;;;16.70;99.90;;;;;;5114182;28;20055;-72
2023/10/04 09:26:19;;;;;;;9.65;3.35;;;16.80;99.90;;;;;;5112765;28;20043;-72
2023/10/04 09:28:48;;;;;;;10.30;3.05;;;16.70;99.90;;;;;;5113938;28;20043;-73
2023/10/04 09:31:14;;;;;;;13.27;4.15;;;16.70;99.90;;;;;;5112448;28;20066;-72
2023/10/04 09:33:40;;;;;;;11.13;3.50;;;16.70;99.90;;;;;;5112651;28;20399;-72
2023/10/04 09:36:06;;;;;;;16.60;4.82;;;16.60;99.90;;;;;;5112573;28;20035;-73
2023/10/04 09:38:35;;;;;;;8.85;3.30;;;16.70;99.90;;;;;;5112433;28;20040;-72
2023/10/04 09:41:01;;;;;;;9.43;3.65;;;16.70;99.90;;;;;;5112185;28;20092;-73
2023/10/04 09:43:39;;;;;;;10.57;3.05;;;16.80;99.90;;;;;;5095641;28;20043;-72
2023/10/04 09:46:07;;;;;;;10.82;4.18;;;16.70;99.90;;;;;;5112317;28;20058;-73
2023/10/04 09:48:34;;;;;;;14.88;4.43;;;16.80;99.90;;;;;;5113492;28;20103;-72
2023/10/04 09:51:01;;;;;;;12.23;3.25;;;16.70;99.90;;;;;;5111774;28;20039;-73
2023/10/04 09:53:28;;;;;;;10.80;3.47;;;16.80;99.90;;;;;;5112122;28;20506;-72
2023/10/04 09:55:58;;;;;;;12.15;4.18;;;16.80;99.90;;;;;;5113318;28;20116;-72
2023/10/04 09:58:24;;;;;;;13.35;3.65;;;16.80;99.90;;;;;;5113158;28;20043;-73
2023/10/04 10:00:55;;;;;;;14.18;3.47;;;16.90;99.90;;;;;;5111745;28;20156;-72
2023/10/04 10:03:28;;;;;;;13.55;3.00;;;17.00;99.90;;;;;;5095249;28;20066;-73
2023/10/04 10:05:54;;;;;;;;;;;16.90;99.90;;;;;;5112423;28;20043;-73
2023/10/04 10:08:21;;;;;;;13.68;3.25;;;16.90;99.90;;;;;;5113000;28;19922;-72
2023/10/04 10:10:47;;;;;;;9.45;3.20;;;17.00;99.90;;;;;;5112768;28;20118;-72
2023/10/04 10:13:15;;;;;;;11.20;3.90;;;16.90;99.90;;;;;;5113258;28;20036;-72
2023/10/04 10:15:42;;;;;;;14.65;3.85;;;17.00;99.90;;;;;;5113177;28;20430;-72
2023/10/04 10:18:08;;;;;;;14.05;3.80;;;16.90;99.90;;;;;;5111888;28;20051;-72
2023/10/04 10:20:34;;;;;;;8.98;3.72;;;16.90;99.90;;;;;;5111748;28;20104;-72
2023/10/04 10:23:00;;;;;;;10.10;4.57;;;17.00;99.90;;;;;;5112883;28;20522;-72
2023/10/04 10:25:27;;;;;;;12.82;4.28;;;17.00;99.90;;;;;;5113072;28;20032;-72
2023/10/04 10:27:57;;;;;;;14.93;3.60;;;16.90;99.90;;;;;;5112894;28;20035;-72
2023/10/04 10:30:23;;;;;;;13.32;4.35;;;16.80;99.90;;;;;;5112375;28;20448;-73
2023/10/04 10:32:54;;;;;;;9.75;3.90;;;16.80;99.90;;;;;;5111580;28;20041;-72
2023/10/04 10:35:57;;;;;;;12.70;3.20;;;16.80;99.90;;;;;;5112729;28;20028;-72
2023/10/04 10:38:40;;;;;;;11.88;3.75;;;16.80;99.90;;;;;;5112769;28;20043;-72
2023/10/04 10:41:28;;;;;;;12.02;3.97;;;16.70;99.90;;;;;;5112435;28;20042;-72
2023/10/04 10:44:17;;;;;;;12.25;4.00;;;16.80;99.90;;;;;;5111215;28;20039;-72
2023/10/04 10:47:01;;;;;;;12.38;3.25;;;16.80;99.90;;;;;;5111341;28;20043;-73
2023/10/04 10:49:41;;;;;;;9.35;3.80;;;16.70;99.90;;;;;;5112213;28;20133;-72
2023/10/04 10:52:20;;;;;;;10.73;3.58;;;16.70;99.90;;;;;;5111374;28;20453;-72
2023/10/04 10:54:46;;;;;;;11.02;3.45;;;16.70;99.90;;;;;;5111500;28;20035;-72
2023/10/04 10:57:12;;;;;;;9.43;3.30;;;16.70;99.90;;;;;;5111195;28;20071;-73
2023/10/04 10:59:38;;;;;;;12.02;4.13;;;16.70;99.90;;;;;;5110881;28;20431;-72
2023/10/04 11:02:06;;;;;;;7.97;3.30;;;16.70;99.90;;;;;;5111023;28;20035;-73
2023/10/04 11:04:32;;;;;;;14.18;3.67;;;16.70;99.90;;;;;;5112318;28;20461;-72
2023/10/04 11:06:57;;;;;;;13.75;3.70;;;16.60;99.90;;;;;;5093966;28;20063;-72
2023/10/04 11:09:23;;;;;;;12.43;3.97;;;16.60;99.90;;;;;;5093659;28;20039;-73
2023/10/04 11:11:49;;;;;;;12.70;3.95;;;16.60;99.90;;;;;;5110626;28;20118;-72
2023/10/04 11:14:16;;;;;;;10.75;3.53;;;16.50;99.90;;;;;;5110895;28;20078;-72
2023/10/04 11:16:45;;;;;;;11.52;3.60;;;16.50;99.90;;;;;;5093677;28;20046;-72
2023/10/04 11:19:12;;;;;;;12.18;5.82;;;16.50;99.90;;;;;;5110827;28;20168;-74
2023/10/04 11:21:38;;;;;;;9.82;3.60;;;16.40;99.90;;;;;;5110809;28;20440;-72
2023/10/04 11:24:04;;;;;;;11.25;4.43;;;16.40;99.90;;;;;;5110878;28;20095;-73
2023/10/04 11:26:30;;;;;;;11.45;3.35;;;16.50;99.90;;;;;;5111068;28;20119;-73
2023/10/04 11:28:57;;;;;;;12.32;3.70;;;16.50;99.90;;;;;;5110648;28;20035;-73
2023/10/04 11:31:23;;;;;;;14.35;3.42;;;16.50;99.90;;;;;;5110797;28;20117;-71
2023/10/04 11:33:55;;;;;;;17.73;4.13;;;16.50;99.90;;;;;;5110602;28;20035;-73
2023/10/04 11:36:22;;;;;;;9.73;3.95;;;16.50;99.90;;;;;;5110696;28;20123;-72
2023/10/04 11:38:54;;;;;;;10.85;3.58;;;16.60;99.90;;;;;;5111788;28;20507;-72
2023/10/04 11:41:21;;;;;;;12.50;3.75;;;16.50;99.90;;;;;;5110509;28;20036;-71
2023/10/04 11:43:47;;;;;;;8.82;3.50;;;16.40;99.90;;;;;;5114023;28;20525;-71
2023/10/04 11:46:12;;;;;;;12.63;3.60;;;16.40;99.90;;;;;;5114601;28;20039;-71
2023/10/04 11:48:38;;;;;;;17.95;3.70;;;16.40;99.90;;;;;;5097742;28;20075;-71
2023/10/04 11:51:04;;;;;;;13.80;4.60;;;16.40;99.90;;;;;;5114237;28;20031;-70
2023/10/04 11:53:38;;;;;;;14.93;4.00;;;16.40;99.90;;;;;;5114644;28;20071;-71
2023/10/04 11:56:09;;;;;;;9.32;3.65;;;16.50;99.90;;;;;;5115885;28;20044;-72
2023/10/04 11:58:44;;;;;;;12.70;3.75;;;16.60;99.90;;;;;;5110584;28;20084;-72
2023/10/04 12:01:11;;;;;;;9.90;3.65;;;16.60;99.90;;;;;;5103205;28;20411;-72
2023/10/04 12:03:37;;;;;;;10.20;3.50;;;16.60;99.90;;;;;;5108253;28;20039;-72
2023/10/04 12:06:04;;;;;;;9.02;4.03;;;16.70;99.90;;;;;;5111681;28;20084;-72
2023/10/04 12:08:30;;;;;;;11.23;4.80;;;16.70;99.90;;;;;;5114039;28;20040;-72
2023/10/04 12:10:55;;;;;;;14.93;4.13;;;16.70;99.90;;;;;;5113850;28;20096;-72
2023/10/04 12:13:22;;;;;;;14.85;4.22;;;16.80;99.90;;;;;;5110445;28;20043;-72
2023/10/04 12:15:48;;;;;;;13.38;4.00;;;16.80;99.90;;;;;;5109206;28;20038;-72
2023/10/04 12:18:15;;;;;;;8.45;3.50;;;16.80;99.90;;;;;;5113903;28;20089;-72
2023/10/04 12:20:42;;;;;;;9.63;3.35;;;16.80;99.90;;;;;;5106471;28;20032;-70
2023/10/04 12:23:10;;;;;;;11.18;3.75;;;16.80;99.90;;;;;;5113846;28;20047;-70
2023/10/04 12:25:37;;;;;;;11.18;3.45;;;17.10;99.90;;;;;;5114293;28;20042;-69
2023/10/04 12:28:07;;;;;;;13.95;4.00;;;17.20;99.90;;;;;;5114333;28;20495;-71
2023/10/04 12:30:33;;;;;;;10.70;3.40;;;17.20;99.90;;;;;;5096226;28;20152;-71
2023/10/04 12:32:59;;;;;;;7.80;3.05;;;17.30;99.90;;;;;;5130545;27;20063;-71
2023/10/04 12:35:25;;;;;;;12.90;3.80;;;17.40;99.90;;;;;;5113544;28;20039;-72
2023/10/04 12:37:51;;;;;;;6.75;3.10;;;17.30;99.90;;;;;;5114900;28;20036;-72
2023/10/04 12:40:18;;;;;;;15.55;3.40;;;17.40;99.90;;;;;;5114720;28;20046;-71
2023/10/04 12:42:45;;;;;;;12.90;3.65;;;17.40;99.90;;;;;;5107976;28;20085;-71
2023/10/04 12:45:11;;;;;;;11.40;3.20;;;17.30;99.90;;;;;;5112222;28;20488;-71
2023/10/04 12:47:40;;;;;;;10.32;3.13;;;17.30;99.90;;;;;;5114726;28;20047;-72
2023/10/04 12:50:05;;;;;;;10.82;3.65;;;17.30;99.90;;;;;;5113108;28;20061;-72
2023/10/04 12:52:31;;;;;;;15.98;4.00;;;17.40;99.90;;;;;;5114808;28;20035;-71